sensor_id;sensor_type;location;lat;lon;timestamp;P1;durP1;ratioP1;P2;durP2;ratioP2
49776;SDS011;35673;51.482;7.436;2022-09-02T00:02:19;6.05;;;1.05;;
49776;SDS011;35673;51.482;7.436;2022-09-02T00:04:44;4.55;;;1.20;;
49776;SDS011;35673;51.482;7.436;2022-09-02T00:07:10;3.13;;;1.10;;
49776;SDS011;35673;51.482;7.436;2022-09-02T00:09:36;2.47;;;1.08;;
49776;SDS011;35673;51.482;7.436;2022-09-02T00:12:03;7.82;;;1.25;;
49776;SDS011;35673;51.482;7.436;2022-09-02T00:14:32;2.50;;;0.80;;
49776;SDS011;35673;51.482;7.436;2022-09-02T00:16:59;2.05;;;1.10;;
49776;SDS011;35673;51.482;7.436;2022-09-02T00:19:26;1.38;;;0.70;;
49776;SDS011;35673;51.482;7.436;2022-09-02T00:21:53;2.15;;;0.90;;
49776;SDS011;35673;51.482;7.436;2022-09-02T00:24:20;3.97;;;1.38;;
49776;SDS011;35673;51.482;7.436;2022-09-02T00:26:46;2.65;;;1.00;;
49776;SDS011;35673;51.482;7.436;2022-09-02T00:29:12;1.35;;;1.00;;
49776;SDS011;35673;51.482;7.436;2022-09-02T00:31:40;1.70;;;0.80;;
49776;SDS011;35673;51.482;7.436;2022-09-02T00:34:07;2.28;;;1.17;;
49776;SDS011;35673;51.482;7.436;2022-09-02T00:36:33;2.38;;;0.80;;
49776;SDS011;35673;51.482;7.436;2022-09-02T00:38:59;3.90;;;1.33;;
49776;SDS011;35673;51.482;7.436;2022-09-02T00:41:26;3.53;;;0.90;;
49776;SDS011;35673;51.482;7.436;2022-09-02T00:43:55;1.23;;;0.77;;
49776;SDS011;35673;51.482;7.436;2022-09-02T00:46:23;1.10;;;0.70;;
49776;SDS011;35673;51.482;7.436;2022-09-02T00:48:52;2.85;;;1.00;;
49776;SDS011;35673;51.482;7.436;2022-09-02T00:51:20;2.10;;;0.80;;
49776;SDS011;35673;51.482;7.436;2022-09-02T00:53:46;2.65;;;1.25;;
49776;SDS011;35673;51.482;7.436;2022-09-02T00:56:15;3.10;;;1.70;;
49776;SDS011;35673;51.482;7.436;2022-09-02T00:58:45;3.25;;;1.20;;
49776;SDS011;35673;51.482;7.436;2022-09-02T01:01:11;1.70;;;0.90;;
49776;SDS011;35673;51.482;7.436;2022-09-02T01:03:38;2.88;;;0.90;;
49776;SDS011;35673;51.482;7.436;2022-09-02T01:06:05;3.75;;;1.15;;
49776;SDS011;35673;51.482;7.436;2022-09-02T01:08:33;5.18;;;0.90;;
49776;SDS011;35673;51.482;7.436;2022-09-02T01:11:00;3.40;;;0.95;;
49776;SDS011;35673;51.482;7.436;2022-09-02T01:13:30;2.08;;;1.17;;
49776;SDS011;35673;51.482;7.436;2022-09-02T01:18:52;1.10;;;0.73;;
49776;SDS011;35673;51.482;7.436;2022-09-02T01:21:21;0.98;;;0.88;;
49776;SDS011;35673;51.482;7.436;2022-09-02T01:23:47;1.50;;;0.95;;
49776;SDS011;35673;51.482;7.436;2022-09-02T01:26:13;1.95;;;0.98;;
49776;SDS011;35673;51.482;7.436;2022-09-02T01:28:39;2.15;;;1.00;;
49776;SDS011;35673;51.482;7.436;2022-09-02T01:31:04;2.53;;;1.00;;
49776;SDS011;35673;51.482;7.436;2022-09-02T01:33:30;2.63;;;1.20;;
49776;SDS011;35673;51.482;7.436;2022-09-02T01:35:56;5.57;;;1.52;;
49776;SDS011;35673;51.482;7.436;2022-09-02T01:38:22;3.50;;;0.90;;
49776;SDS011;35673;51.482;7.436;2022-09-02T01:40:48;3.53;;;1.35;;
49776;SDS011;35673;51.482;7.436;2022-09-02T01:43:17;1.77;;;0.80;;
49776;SDS011;35673;51.482;7.436;2022-09-02T01:45:45;2.58;;;0.93;;
49776;SDS011;35673;51.482;7.436;2022-09-02T01:48:12;2.92;;;0.80;;
49776;SDS011;35673;51.482;7.436;2022-09-02T01:50:40;3.25;;;1.40;;
49776;SDS011;35673;51.482;7.436;2022-09-02T01:53:09;3.00;;;0.80;;
49776;SDS011;35673;51.482;7.436;2022-09-02T01:55:34;1.95;;;0.70;;
49776;SDS011;35673;51.482;7.436;2022-09-02T01:58:00;7.85;;;1.00;;
49776;SDS011;35673;51.482;7.436;2022-09-02T02:00:26;6.78;;;1.35;;
49776;SDS011;35673;51.482;7.436;2022-09-02T02:02:52;4.40;;;1.17;;
49776;SDS011;35673;51.482;7.436;2022-09-02T02:05:19;2.63;;;0.90;;
49776;SDS011;35673;51.482;7.436;2022-09-02T02:07:45;5.25;;;1.75;;
49776;SDS011;35673;51.482;7.436;2022-09-02T02:10:12;3.40;;;0.88;;
49776;SDS011;35673;51.482;7.436;2022-09-02T02:12:39;2.25;;;0.50;;
49776;SDS011;35673;51.482;7.436;2022-09-02T02:15:07;1.83;;;1.25;;
49776;SDS011;35673;51.482;7.436;2022-09-02T02:17:36;1.73;;;0.90;;
49776;SDS011;35673;51.482;7.436;2022-09-02T02:20:02;1.45;;;0.52;;
49776;SDS011;35673;51.482;7.436;2022-09-02T02:22:29;3.58;;;0.70;;
49776;SDS011;35673;51.482;7.436;2022-09-02T02:24:55;2.17;;;0.70;;
49776;SDS011;35673;51.482;7.436;2022-09-02T02:27:21;2.20;;;1.02;;
49776;SDS011;35673;51.482;7.436;2022-09-02T02:29:46;1.55;;;0.85;;
49776;SDS011;35673;51.482;7.436;2022-09-02T02:32:12;2.58;;;0.85;;
49776;SDS011;35673;51.482;7.436;2022-09-02T02:34:38;1.60;;;0.70;;
49776;SDS011;35673;51.482;7.436;2022-09-02T02:37:04;1.70;;;0.90;;
49776;SDS011;35673;51.482;7.436;2022-09-02T02:39:30;2.63;;;0.98;;
49776;SDS011;35673;51.482;7.436;2022-09-02T02:41:56;1.98;;;0.90;;
49776;SDS011;35673;51.482;7.436;2022-09-02T02:44:21;2.90;;;0.77;;
49776;SDS011;35673;51.482;7.436;2022-09-02T02:46:48;1.02;;;0.77;;
49776;SDS011;35673;51.482;7.436;2022-09-02T02:49:14;3.88;;;0.88;;
49776;SDS011;35673;51.482;7.436;2022-09-02T02:51:40;2.05;;;0.75;;
49776;SDS011;35673;51.482;7.436;2022-09-02T02:54:06;4.32;;;1.25;;
49776;SDS011;35673;51.482;7.436;2022-09-02T02:56:32;1.17;;;0.88;;
49776;SDS011;35673;51.482;7.436;2022-09-02T02:58:57;2.38;;;0.85;;
49776;SDS011;35673;51.482;7.436;2022-09-02T03:01:27;6.50;;;0.93;;
49776;SDS011;35673;51.482;7.436;2022-09-02T03:03:54;2.05;;;0.80;;
49776;SDS011;35673;51.482;7.436;2022-09-02T03:06:19;1.38;;;0.65;;
49776;SDS011;35673;51.482;7.436;2022-09-02T03:08:45;3.88;;;0.80;;
49776;SDS011;35673;51.482;7.436;2022-09-02T03:11:12;5.32;;;1.00;;
49776;SDS011;35673;51.482;7.436;2022-09-02T03:13:38;1.92;;;1.02;;
49776;SDS011;35673;51.482;7.436;2022-09-02T03:16:04;5.45;;;1.20;;
49776;SDS011;35673;51.482;7.436;2022-09-02T03:18:30;3.92;;;0.93;;
49776;SDS011;35673;51.482;7.436;2022-09-02T03:20:56;2.92;;;1.00;;
49776;SDS011;35673;51.482;7.436;2022-09-02T03:23:22;2.45;;;1.10;;
49776;SDS011;35673;51.482;7.436;2022-09-02T03:25:48;1.35;;;1.13;;
49776;SDS011;35673;51.482;7.436;2022-09-02T03:28:14;1.90;;;1.10;;
49776;SDS011;35673;51.482;7.436;2022-09-02T03:30:41;1.13;;;0.98;;
49776;SDS011;35673;51.482;7.436;2022-09-02T03:33:08;2.47;;;1.08;;
49776;SDS011;35673;51.482;7.436;2022-09-02T03:35:37;3.15;;;1.30;;
49776;SDS011;35673;51.482;7.436;2022-09-02T03:40:30;3.78;;;0.98;;
49776;SDS011;35673;51.482;7.436;2022-09-02T03:42:56;3.63;;;1.17;;
49776;SDS011;35673;51.482;7.436;2022-09-02T03:45:22;3.72;;;1.20;;
49776;SDS011;35673;51.482;7.436;2022-09-02T03:47:48;3.15;;;1.30;;
49776;SDS011;35673;51.482;7.436;2022-09-02T03:50:22;2.47;;;1.00;;
49776;SDS011;35673;51.482;7.436;2022-09-02T03:52:54;3.13;;;1.10;;
49776;SDS011;35673;51.482;7.436;2022-09-02T03:55:20;3.15;;;1.00;;
49776;SDS011;35673;51.482;7.436;2022-09-02T03:57:46;1.92;;;1.13;;
49776;SDS011;35673;51.482;7.436;2022-09-02T04:00:13;2.47;;;1.33;;
49776;SDS011;35673;51.482;7.436;2022-09-02T04:02:40;2.78;;;1.20;;
49776;SDS011;35673;51.482;7.436;2022-09-02T04:05:07;2.75;;;1.15;;
49776;SDS011;35673;51.482;7.436;2022-09-02T04:07:33;2.55;;;1.30;;
49776;SDS011;35673;51.482;7.436;2022-09-02T04:09:59;4.57;;;1.17;;
49776;SDS011;35673;51.482;7.436;2022-09-02T04:12:25;2.30;;;1.42;;
49776;SDS011;35673;51.482;7.436;2022-09-02T04:14:51;3.53;;;1.30;;
49776;SDS011;35673;51.482;7.436;2022-09-02T04:17:16;2.10;;;1.15;;
49776;SDS011;35673;51.482;7.436;2022-09-02T04:19:42;1.80;;;1.00;;
49776;SDS011;35673;51.482;7.436;2022-09-02T04:22:08;3.05;;;1.00;;
49776;SDS011;35673;51.482;7.436;2022-09-02T04:24:34;3.03;;;0.88;;
49776;SDS011;35673;51.482;7.436;2022-09-02T04:27:00;3.92;;;1.48;;
49776;SDS011;35673;51.482;7.436;2022-09-02T04:29:26;2.90;;;1.23;;
49776;SDS011;35673;51.482;7.436;2022-09-02T04:31:52;5.57;;;1.30;;
49776;SDS011;35673;51.482;7.436;2022-09-02T04:34:18;3.10;;;0.88;;
49776;SDS011;35673;51.482;7.436;2022-09-02T04:36:43;4.10;;;1.05;;
49776;SDS011;35673;51.482;7.436;2022-09-02T04:39:09;3.13;;;1.60;;
49776;SDS011;35673;51.482;7.436;2022-09-02T04:41:35;4.78;;;1.88;;
49776;SDS011;35673;51.482;7.436;2022-09-02T04:44:01;4.95;;;1.25;;
49776;SDS011;35673;51.482;7.436;2022-09-02T04:46:28;10.05;;;1.52;;
49776;SDS011;35673;51.482;7.436;2022-09-02T04:48:53;4.90;;;1.70;;
49776;SDS011;35673;51.482;7.436;2022-09-02T04:51:21;4.55;;;1.33;;
49776;SDS011;35673;51.482;7.436;2022-09-02T04:53:49;4.43;;;1.52;;
49776;SDS011;35673;51.482;7.436;2022-09-02T04:56:17;2.47;;;1.40;;
49776;SDS011;35673;51.482;7.436;2022-09-02T04:58:46;6.93;;;1.27;;
49776;SDS011;35673;51.482;7.436;2022-09-02T05:01:15;4.38;;;1.38;;
49776;SDS011;35673;51.482;7.436;2022-09-02T05:03:44;2.08;;;1.13;;
49776;SDS011;35673;51.482;7.436;2022-09-02T05:06:11;10.18;;;2.22;;
49776;SDS011;35673;51.482;7.436;2022-09-02T05:08:38;3.42;;;1.27;;
49776;SDS011;35673;51.482;7.436;2022-09-02T05:11:10;17.75;;;2.22;;
49776;SDS011;35673;51.482;7.436;2022-09-02T05:13:38;6.50;;;1.55;;
49776;SDS011;35673;51.482;7.436;2022-09-02T05:16:05;8.27;;;1.77;;
49776;SDS011;35673;51.482;7.436;2022-09-02T05:18:31;16.52;;;2.70;;
49776;SDS011;35673;51.482;7.436;2022-09-02T05:20:57;20.08;;;3.03;;
49776;SDS011;35673;51.482;7.436;2022-09-02T05:23:23;13.85;;;1.92;;
49776;SDS011;35673;51.482;7.436;2022-09-02T05:25:49;17.15;;;2.28;;
49776;SDS011;35673;51.482;7.436;2022-09-02T05:28:15;8.85;;;2.22;;
49776;SDS011;35673;51.482;7.436;2022-09-02T05:30:41;32.40;;;4.40;;
49776;SDS011;35673;51.482;7.436;2022-09-02T05:33:08;44.97;;;6.35;;
49776;SDS011;35673;51.482;7.436;2022-09-02T05:35:39;45.10;;;6.15;;
49776;SDS011;35673;51.482;7.436;2022-09-02T05:38:06;40.22;;;6.82;;
49776;SDS011;35673;51.482;7.436;2022-09-02T05:40:32;64.07;;;8.52;;
49776;SDS011;35673;51.482;7.436;2022-09-02T05:42:58;37.75;;;7.60;;
49776;SDS011;35673;51.482;7.436;2022-09-02T05:45:24;78.00;;;9.13;;
49776;SDS011;35673;51.482;7.436;2022-09-02T05:47:49;20.00;;;3.33;;
49776;SDS011;35673;51.482;7.436;2022-09-02T05:50:15;28.85;;;5.15;;
49776;SDS011;35673;51.482;7.436;2022-09-02T05:52:41;27.17;;;4.40;;
49776;SDS011;35673;51.482;7.436;2022-09-02T05:55:07;39.35;;;5.65;;
49776;SDS011;35673;51.482;7.436;2022-09-02T05:57:33;21.83;;;4.75;;
49776;SDS011;35673;51.482;7.436;2022-09-02T05:59:59;18.70;;;4.20;;
49776;SDS011;35673;51.482;7.436;2022-09-02T06:02:24;8.35;;;3.13;;
49776;SDS011;35673;51.482;7.436;2022-09-02T06:04:51;19.40;;;4.15;;
49776;SDS011;35673;51.482;7.436;2022-09-02T06:07:19;15.98;;;2.88;;
49776;SDS011;35673;51.482;7.436;2022-09-02T06:09:46;10.85;;;2.95;;
49776;SDS011;35673;51.482;7.436;2022-09-02T06:12:12;12.95;;;2.55;;
49776;SDS011;35673;51.482;7.436;2022-09-02T06:14:40;18.45;;;2.47;;
49776;SDS011;35673;51.482;7.436;2022-09-02T06:17:07;10.82;;;1.88;;
49776;SDS011;35673;51.482;7.436;2022-09-02T06:19:33;8.65;;;1.42;;
49776;SDS011;35673;51.482;7.436;2022-09-02T06:22:00;4.90;;;1.40;;
49776;SDS011;35673;51.482;7.436;2022-09-02T06:24:27;5.38;;;1.75;;
49776;SDS011;35673;51.482;7.436;2022-09-02T06:26:54;7.85;;;2.88;;
49776;SDS011;35673;51.482;7.436;2022-09-02T06:29:20;6.10;;;1.58;;
49776;SDS011;35673;51.482;7.436;2022-09-02T06:31:48;11.50;;;2.28;;
49776;SDS011;35673;51.482;7.436;2022-09-02T06:34:15;7.68;;;2.03;;
49776;SDS011;35673;51.482;7.436;2022-09-02T06:36:43;7.00;;;1.58;;
49776;SDS011;35673;51.482;7.436;2022-09-02T06:39:12;10.57;;;2.20;;
49776;SDS011;35673;51.482;7.436;2022-09-02T06:41:41;3.50;;;1.83;;
49776;SDS011;35673;51.482;7.436;2022-09-02T06:44:08;5.85;;;1.52;;
49776;SDS011;35673;51.482;7.436;2022-09-02T06:46:36;3.33;;;1.35;;
49776;SDS011;35673;51.482;7.436;2022-09-02T06:49:07;10.52;;;2.35;;
49776;SDS011;35673;51.482;7.436;2022-09-02T06:51:43;5.80;;;2.13;;
49776;SDS011;35673;51.482;7.436;2022-09-02T06:54:11;6.97;;;1.70;;
49776;SDS011;35673;51.482;7.436;2022-09-02T06:56:39;3.78;;;1.75;;
49776;SDS011;35673;51.482;7.436;2022-09-02T06:59:05;6.72;;;1.80;;
49776;SDS011;35673;51.482;7.436;2022-09-02T07:01:31;8.00;;;1.90;;
49776;SDS011;35673;51.482;7.436;2022-09-02T07:03:58;5.32;;;1.23;;
49776;SDS011;35673;51.482;7.436;2022-09-02T07:06:44;4.45;;;1.52;;
49776;SDS011;35673;51.482;7.436;2022-09-02T07:09:12;3.80;;;1.45;;
49776;SDS011;35673;51.482;7.436;2022-09-02T07:11:39;8.82;;;2.05;;
49776;SDS011;35673;51.482;7.436;2022-09-02T07:14:05;3.05;;;1.35;;
49776;SDS011;35673;51.482;7.436;2022-09-02T07:16:36;6.38;;;1.58;;
49776;SDS011;35673;51.482;7.436;2022-09-02T07:19:06;6.40;;;4.28;;
49776;SDS011;35673;51.482;7.436;2022-09-02T07:21:32;6.35;;;2.03;;
49776;SDS011;35673;51.482;7.436;2022-09-02T07:23:58;5.22;;;1.85;;
49776;SDS011;35673;51.482;7.436;2022-09-02T07:26:25;5.90;;;1.90;;
49776;SDS011;35673;51.482;7.436;2022-09-02T07:28:52;4.60;;;1.73;;
49776;SDS011;35673;51.482;7.436;2022-09-02T07:31:17;7.10;;;1.65;;
49776;SDS011;35673;51.482;7.436;2022-09-02T07:33:43;9.63;;;2.20;;
49776;SDS011;35673;51.482;7.436;2022-09-02T07:36:10;2.95;;;1.38;;
49776;SDS011;35673;51.482;7.436;2022-09-02T07:38:37;5.63;;;1.52;;
49776;SDS011;35673;51.482;7.436;2022-09-02T07:41:05;3.45;;;1.48;;
49776;SDS011;35673;51.482;7.436;2022-09-02T07:43:32;3.90;;;1.55;;
49776;SDS011;35673;51.482;7.436;2022-09-02T07:45:59;4.47;;;1.67;;
49776;SDS011;35673;51.482;7.436;2022-09-02T07:48:26;6.03;;;1.50;;
49776;SDS011;35673;51.482;7.436;2022-09-02T07:50:52;3.90;;;1.73;;
49776;SDS011;35673;51.482;7.436;2022-09-02T07:53:18;4.63;;;1.75;;
49776;SDS011;35673;51.482;7.436;2022-09-02T07:55:44;4.75;;;2.03;;
49776;SDS011;35673;51.482;7.436;2022-09-02T07:58:11;6.50;;;1.65;;
49776;SDS011;35673;51.482;7.436;2022-09-02T08:00:38;4.53;;;1.80;;
49776;SDS011;35673;51.482;7.436;2022-09-02T08:03:04;3.95;;;1.33;;
49776;SDS011;35673;51.482;7.436;2022-09-02T08:05:30;3.80;;;1.50;;
49776;SDS011;35673;51.482;7.436;2022-09-02T08:07:57;8.50;;;2.55;;
49776;SDS011;35673;51.482;7.436;2022-09-02T08:10:24;9.93;;;2.17;;
49776;SDS011;35673;51.482;7.436;2022-09-02T08:12:51;4.70;;;1.73;;
49776;SDS011;35673;51.482;7.436;2022-09-02T08:15:17;8.50;;;2.05;;
49776;SDS011;35673;51.482;7.436;2022-09-02T08:17:44;8.68;;;2.00;;
49776;SDS011;35673;51.482;7.436;2022-09-02T08:20:11;8.35;;;2.55;;
49776;SDS011;35673;51.482;7.436;2022-09-02T08:22:38;4.82;;;1.38;;
49776;SDS011;35673;51.482;7.436;2022-09-02T08:25:04;7.25;;;2.10;;
49776;SDS011;35673;51.482;7.436;2022-09-02T08:27:30;6.13;;;1.63;;
49776;SDS011;35673;51.482;7.436;2022-09-02T08:29:56;7.53;;;1.90;;
49776;SDS011;35673;51.482;7.436;2022-09-02T08:32:23;3.35;;;1.50;;
49776;SDS011;35673;51.482;7.436;2022-09-02T08:34:49;6.53;;;2.13;;
49776;SDS011;35673;51.482;7.436;2022-09-02T08:37:14;6.60;;;1.77;;
49776;SDS011;35673;51.482;7.436;2022-09-02T08:39:43;14.15;;;1.75;;
49776;SDS011;35673;51.482;7.436;2022-09-02T08:42:14;5.03;;;1.27;;
49776;SDS011;35673;51.482;7.436;2022-09-02T08:44:43;4.22;;;1.60;;
49776;SDS011;35673;51.482;7.436;2022-09-02T08:47:17;4.50;;;1.55;;
49776;SDS011;35673;51.482;7.436;2022-09-02T08:49:50;12.85;;;2.15;;
49776;SDS011;35673;51.482;7.436;2022-09-02T08:52:27;5.82;;;2.17;;
49776;SDS011;35673;51.482;7.436;2022-09-02T08:55:00;10.15;;;2.20;;
49776;SDS011;35673;51.482;7.436;2022-09-02T08:57:27;6.03;;;1.70;;
49776;SDS011;35673;51.482;7.436;2022-09-02T08:59:56;6.82;;;2.00;;
49776;SDS011;35673;51.482;7.436;2022-09-02T09:02:26;5.95;;;1.90;;
49776;SDS011;35673;51.482;7.436;2022-09-02T09:05:44;6.00;;;1.92;;
49776;SDS011;35673;51.482;7.436;2022-09-02T09:11:14;7.45;;;1.77;;
49776;SDS011;35673;51.482;7.436;2022-09-02T09:14:04;8.13;;;1.77;;
49776;SDS011;35673;51.482;7.436;2022-09-02T09:17:03;3.08;;;1.77;;
49776;SDS011;35673;51.482;7.436;2022-09-02T09:19:47;5.82;;;1.63;;
49776;SDS011;35673;51.482;7.436;2022-09-02T09:22:21;4.57;;;1.90;;
49776;SDS011;35673;51.482;7.436;2022-09-02T09:24:52;5.38;;;1.80;;
49776;SDS011;35673;51.482;7.436;2022-09-02T09:27:21;6.60;;;1.30;;
49776;SDS011;35673;51.482;7.436;2022-09-02T09:29:47;6.65;;;1.77;;
49776;SDS011;35673;51.482;7.436;2022-09-02T09:35:00;4.45;;;1.73;;
49776;SDS011;35673;51.482;7.436;2022-09-02T09:39:57;4.45;;;1.83;;
49776;SDS011;35673;51.482;7.436;2022-09-02T09:45:36;4.30;;;2.08;;
49776;SDS011;35673;51.482;7.436;2022-09-02T09:48:22;10.73;;;2.38;;
49776;SDS011;35673;51.482;7.436;2022-09-02T09:53:22;4.10;;;1.60;;
49776;SDS011;35673;51.482;7.436;2022-09-02T09:58:16;7.18;;;1.77;;
49776;SDS011;35673;51.482;7.436;2022-09-02T10:00:43;7.40;;;2.70;;
49776;SDS011;35673;51.482;7.436;2022-09-02T10:03:10;5.13;;;1.60;;
49776;SDS011;35673;51.482;7.436;2022-09-02T10:05:46;3.90;;;1.25;;
49776;SDS011;35673;51.482;7.436;2022-09-02T10:10:40;3.95;;;1.80;;
49776;SDS011;35673;51.482;7.436;2022-09-02T10:13:30;6.40;;;1.73;;
49776;SDS011;35673;51.482;7.436;2022-09-02T10:16:11;3.53;;;1.70;;
49776;SDS011;35673;51.482;7.436;2022-09-02T10:18:47;7.57;;;2.22;;
49776;SDS011;35673;51.482;7.436;2022-09-02T10:34:33;5.28;;;1.90;;
49776;SDS011;35673;51.482;7.436;2022-09-02T10:45:15;3.70;;;1.42;;
49776;SDS011;35673;51.482;7.436;2022-09-02T10:53:10;1.70;;;1.33;;
49776;SDS011;35673;51.482;7.436;2022-09-02T10:56:00;3.95;;;1.45;;
49776;SDS011;35673;51.482;7.436;2022-09-02T10:58:36;6.97;;;1.20;;
49776;SDS011;35673;51.482;7.436;2022-09-02T11:01:09;3.10;;;1.35;;
49776;SDS011;35673;51.482;7.436;2022-09-02T11:06:35;2.20;;;1.33;;
49776;SDS011;35673;51.482;7.436;2022-09-02T11:09:10;3.47;;;1.27;;
49776;SDS011;35673;51.482;7.436;2022-09-02T11:11:57;4.10;;;1.00;;
49776;SDS011;35673;51.482;7.436;2022-09-02T11:15:17;2.47;;;1.05;;
49776;SDS011;35673;51.482;7.436;2022-09-02T11:34:20;1.65;;;1.00;;
49776;SDS011;35673;51.482;7.436;2022-09-02T11:36:59;1.17;;;0.90;;
49776;SDS011;35673;51.482;7.436;2022-09-02T11:42:14;3.80;;;1.45;;
49776;SDS011;35673;51.482;7.436;2022-09-02T11:44:59;0.60;;;0.60;;
49776;SDS011;35673;51.482;7.436;2022-09-02T11:47:37;1.58;;;0.93;;
49776;SDS011;35673;51.482;7.436;2022-09-02T11:50:27;1.55;;;0.75;;
49776;SDS011;35673;51.482;7.436;2022-09-02T11:53:10;4.15;;;1.35;;
49776;SDS011;35673;51.482;7.436;2022-09-02T11:55:53;1.77;;;0.85;;
49776;SDS011;35673;51.482;7.436;2022-09-02T12:01:04;2.33;;;0.80;;
49776;SDS011;35673;51.482;7.436;2022-09-02T12:03:43;1.40;;;0.70;;
49776;SDS011;35673;51.482;7.436;2022-09-02T12:06:14;1.92;;;0.93;;
49776;SDS011;35673;51.482;7.436;2022-09-02T12:11:09;0.85;;;0.80;;
49776;SDS011;35673;51.482;7.436;2022-09-02T12:14:04;4.82;;;1.33;;
49776;SDS011;35673;51.482;7.436;2022-09-02T12:16:34;0.70;;;0.70;;
49776;SDS011;35673;51.482;7.436;2022-09-02T12:21:31;1.20;;;0.73;;
49776;SDS011;35673;51.482;7.436;2022-09-02T12:26:28;0.98;;;0.82;;
49776;SDS011;35673;51.482;7.436;2022-09-02T12:31:53;2.92;;;0.95;;
49776;SDS011;35673;51.482;7.436;2022-09-02T12:36:58;4.65;;;1.23;;
49776;SDS011;35673;51.482;7.436;2022-09-02T12:55:26;1.33;;;0.75;;
49776;SDS011;35673;51.482;7.436;2022-09-02T12:57:54;3.70;;;0.82;;
49776;SDS011;35673;51.482;7.436;2022-09-02T13:11:34;2.05;;;1.30;;
49776;SDS011;35673;51.482;7.436;2022-09-02T13:17:21;2.63;;;0.90;;
49776;SDS011;35673;51.482;7.436;2022-09-02T13:22:40;1.60;;;0.60;;
49776;SDS011;35673;51.482;7.436;2022-09-02T13:27:44;3.50;;;1.10;;
49776;SDS011;35673;51.482;7.436;2022-09-02T13:33:09;2.67;;;1.00;;
49776;SDS011;35673;51.482;7.436;2022-09-02T13:35:36;2.17;;;0.65;;
49776;SDS011;35673;51.482;7.436;2022-09-02T13:38:04;1.10;;;0.80;;
49776;SDS011;35673;51.482;7.436;2022-09-02T13:40:34;1.45;;;0.70;;
49776;SDS011;35673;51.482;7.436;2022-09-02T13:43:01;1.90;;;0.90;;
49776;SDS011;35673;51.482;7.436;2022-09-02T13:45:42;1.67;;;0.75;;
49776;SDS011;35673;51.482;7.436;2022-09-02T13:50:48;1.80;;;0.88;;
49776;SDS011;35673;51.482;7.436;2022-09-02T13:53:26;1.70;;;0.85;;
49776;SDS011;35673;51.482;7.436;2022-09-02T13:55:53;3.67;;;0.70;;
49776;SDS011;35673;51.482;7.436;2022-09-02T14:00:55;2.17;;;0.57;;
49776;SDS011;35673;51.482;7.436;2022-09-02T14:03:22;1.38;;;0.68;;
49776;SDS011;35673;51.482;7.436;2022-09-02T14:05:49;1.60;;;0.63;;
49776;SDS011;35673;51.482;7.436;2022-09-02T14:08:23;1.00;;;0.55;;
49776;SDS011;35673;51.482;7.436;2022-09-02T14:10:52;1.17;;;0.70;;
49776;SDS011;35673;51.482;7.436;2022-09-02T14:13:19;0.70;;;0.60;;
49776;SDS011;35673;51.482;7.436;2022-09-02T14:15:46;1.60;;;0.70;;
49776;SDS011;35673;51.482;7.436;2022-09-02T14:23:47;3.22;;;0.73;;
49776;SDS011;35673;51.482;7.436;2022-09-02T14:26:19;0.98;;;0.80;;
49776;SDS011;35673;51.482;7.436;2022-09-02T14:28:57;2.30;;;0.82;;
49776;SDS011;35673;51.482;7.436;2022-09-02T14:31:24;3.55;;;0.63;;
49776;SDS011;35673;51.482;7.436;2022-09-02T14:33:54;1.90;;;1.00;;
49776;SDS011;35673;51.482;7.436;2022-09-02T14:38:53;0.70;;;0.70;;
49776;SDS011;35673;51.482;7.436;2022-09-02T14:41:22;1.70;;;0.50;;
49776;SDS011;35673;51.482;7.436;2022-09-02T14:46:32;4.45;;;0.70;;
49776;SDS011;35673;51.482;7.436;2022-09-02T14:49:05;2.97;;;0.60;;
49776;SDS011;35673;51.482;7.436;2022-09-02T14:51:33;1.98;;;0.90;;
49776;SDS011;35673;51.482;7.436;2022-09-02T14:54:03;1.08;;;0.50;;
49776;SDS011;35673;51.482;7.436;2022-09-02T14:56:46;1.45;;;0.45;;
49776;SDS011;35673;51.482;7.436;2022-09-02T14:59:16;1.60;;;0.80;;
49776;SDS011;35673;51.482;7.436;2022-09-02T15:01:47;2.10;;;0.60;;
49776;SDS011;35673;51.482;7.436;2022-09-02T15:04:15;3.10;;;0.52;;
49776;SDS011;35673;51.482;7.436;2022-09-02T15:06:43;1.00;;;0.70;;
49776;SDS011;35673;51.482;7.436;2022-09-02T15:09:09;3.08;;;0.55;;
49776;SDS011;35673;51.482;7.436;2022-09-02T15:11:37;2.40;;;0.88;;
49776;SDS011;35673;51.482;7.436;2022-09-02T15:14:03;2.33;;;0.63;;
49776;SDS011;35673;51.482;7.436;2022-09-02T15:16:29;2.60;;;0.70;;
49776;SDS011;35673;51.482;7.436;2022-09-02T15:18:55;2.05;;;0.93;;
49776;SDS011;35673;51.482;7.436;2022-09-02T15:21:20;1.75;;;0.85;;
49776;SDS011;35673;51.482;7.436;2022-09-02T15:23:46;4.65;;;0.50;;
49776;SDS011;35673;51.482;7.436;2022-09-02T15:26:13;2.55;;;0.65;;
49776;SDS011;35673;51.482;7.436;2022-09-02T15:28:39;1.20;;;0.47;;
49776;SDS011;35673;51.482;7.436;2022-09-02T15:31:05;1.48;;;0.70;;
49776;SDS011;35673;51.482;7.436;2022-09-02T15:33:31;6.20;;;1.15;;
49776;SDS011;35673;51.482;7.436;2022-09-02T15:36:07;1.25;;;0.47;;
49776;SDS011;35673;51.482;7.436;2022-09-02T15:38:35;2.03;;;0.50;;
49776;SDS011;35673;51.482;7.436;2022-09-02T15:41:12;2.35;;;0.60;;
49776;SDS011;35673;51.482;7.436;2022-09-02T15:43:39;2.15;;;0.70;;
49776;SDS011;35673;51.482;7.436;2022-09-02T15:46:27;0.95;;;0.80;;
49776;SDS011;35673;51.482;7.436;2022-09-02T15:48:53;0.80;;;0.68;;
49776;SDS011;35673;51.482;7.436;2022-09-02T15:51:20;1.75;;;1.00;;
49776;SDS011;35673;51.482;7.436;2022-09-02T15:53:52;1.95;;;0.80;;
49776;SDS011;35673;51.482;7.436;2022-09-02T15:56:22;2.55;;;0.80;;
49776;SDS011;35673;51.482;7.436;2022-09-02T15:58:57;1.00;;;0.90;;
49776;SDS011;35673;51.482;7.436;2022-09-02T16:01:28;2.65;;;0.70;;
49776;SDS011;35673;51.482;7.436;2022-09-02T16:03:56;1.60;;;0.90;;
49776;SDS011;35673;51.482;7.436;2022-09-02T16:06:22;1.42;;;0.75;;
49776;SDS011;35673;51.482;7.436;2022-09-02T16:08:48;1.25;;;0.90;;
49776;SDS011;35673;51.482;7.436;2022-09-02T16:11:14;2.40;;;0.80;;
49776;SDS011;35673;51.482;7.436;2022-09-02T16:13:40;1.42;;;1.10;;
49776;SDS011;35673;51.482;7.436;2022-09-02T16:16:06;5.75;;;0.90;;
49776;SDS011;35673;51.482;7.436;2022-09-02T16:18:33;2.03;;;1.35;;
49776;SDS011;35673;51.482;7.436;2022-09-02T16:21:00;1.30;;;0.52;;
49776;SDS011;35673;51.482;7.436;2022-09-02T16:23:26;2.47;;;1.15;;
49776;SDS011;35673;51.482;7.436;2022-09-02T16:28:40;5.32;;;1.50;;
49776;SDS011;35673;51.482;7.436;2022-09-02T16:31:08;2.38;;;1.15;;
49776;SDS011;35673;51.482;7.436;2022-09-02T16:33:35;2.42;;;1.10;;
49776;SDS011;35673;51.482;7.436;2022-09-02T16:36:02;2.92;;;1.00;;
49776;SDS011;35673;51.482;7.436;2022-09-02T16:38:28;2.25;;;0.80;;
49776;SDS011;35673;51.482;7.436;2022-09-02T16:40:55;0.82;;;0.82;;
49776;SDS011;35673;51.482;7.436;2022-09-02T16:43:22;5.47;;;1.20;;
49776;SDS011;35673;51.482;7.436;2022-09-02T16:45:51;5.70;;;1.13;;
49776;SDS011;35673;51.482;7.436;2022-09-02T16:48:19;4.35;;;1.15;;
49776;SDS011;35673;51.482;7.436;2022-09-02T16:50:46;1.73;;;1.13;;
49776;SDS011;35673;51.482;7.436;2022-09-02T16:53:12;4.68;;;1.30;;
49776;SDS011;35673;51.482;7.436;2022-09-02T16:55:43;2.45;;;0.93;;
49776;SDS011;35673;51.482;7.436;2022-09-02T16:58:10;0.82;;;0.65;;
49776;SDS011;35673;51.482;7.436;2022-09-02T17:00:37;2.25;;;1.08;;
49776;SDS011;35673;51.482;7.436;2022-09-02T17:03:13;2.47;;;1.20;;
49776;SDS011;35673;51.482;7.436;2022-09-02T17:05:39;1.85;;;1.33;;
49776;SDS011;35673;51.482;7.436;2022-09-02T17:08:05;4.15;;;1.33;;
49776;SDS011;35673;51.482;7.436;2022-09-02T17:10:32;3.13;;;1.33;;
49776;SDS011;35673;51.482;7.436;2022-09-02T17:12:59;2.72;;;1.58;;
49776;SDS011;35673;51.482;7.436;2022-09-02T17:15:25;3.03;;;1.00;;
49776;SDS011;35673;51.482;7.436;2022-09-02T17:17:52;4.50;;;1.52;;
49776;SDS011;35673;51.482;7.436;2022-09-02T17:20:18;4.35;;;1.50;;
49776;SDS011;35673;51.482;7.436;2022-09-02T17:22:44;3.05;;;1.60;;